ARG1485 SACO-SAZM
Flight info
| Callsign | ARG1485 |
|---|---|
| Flight time | 1h 27m |
| Altitude | 33000 |
| Route | UTRAX UW24 SNT DCT EZE UW29 VOTRA VOTRA2U |
| Aircraft | B738/M-SDE2E3FGHIRWXY/LB1 |
Departure
| Time | 2026-05-03 21:40 |
|---|---|
| Airport | Ingeniero Aeronáutico Ambrosio L.V. Taravella International Airport (SACO) |
Arrival
| Time | 2026-05-03 23:07 |
|---|---|
| Airport | Ástor Piazzola International Airport (SAZM) |
| Time | Latitude | Longitude | Altitude | Speed | Heading |
|---|---|---|---|---|---|
| 2026-05-03 21:06 | -31.31612 | -64.21166 | 1550 ft | 0 kts | 268° |
| 2026-05-03 21:30 | -31.31612 | -64.21164 | 1620 ft | 2 kts | 268° |
| 2026-05-03 21:30 | -31.31611 | -64.21145 | 1614 ft | 2 kts | 268° |
| 2026-05-03 21:31 | -31.31611 | -64.21126 | 1617 ft | 2 kts | 268° |
| 2026-05-03 21:31 | -31.31609 | -64.21107 | 1619 ft | 2 kts | 250° |
| 2026-05-03 21:31 | -31.31601 | -64.21091 | 1621 ft | 1 kts | 192° |
| 2026-05-03 21:31 | -31.31600 | -64.21091 | 1621 ft | 0 kts | 189° |
| 2026-05-03 21:33 | -31.31623 | -64.21095 | 1617 ft | 6 kts | 187° |
| 2026-05-03 21:33 | -31.31668 | -64.21100 | 1617 ft | 7 kts | 182° |
| 2026-05-03 21:33 | -31.31714 | -64.21090 | 1615 ft | 7 kts | 158° |
| 2026-05-03 21:33 | -31.31763 | -64.21055 | 1616 ft | 10 kts | 149° |
| 2026-05-03 21:34 | -31.31845 | -64.21032 | 1614 ft | 14 kts | 175° |
| 2026-05-03 21:34 | -31.31941 | -64.21025 | 1617 ft | 14 kts | 178° |
| 2026-05-03 21:34 | -31.32035 | -64.21023 | 1619 ft | 13 kts | 179° |
| 2026-05-03 21:34 | -31.32124 | -64.21023 | 1612 ft | 13 kts | 181° |
| 2026-05-03 21:35 | -31.32215 | -64.21023 | 1620 ft | 14 kts | 179° |
| 2026-05-03 21:35 | -31.32315 | -64.21021 | 1617 ft | 14 kts | 178° |
| 2026-05-03 21:35 | -31.32373 | -64.21015 | 1617 ft | 2 kts | 167° |
| 2026-05-03 21:35 | -31.32384 | -64.21011 | 1615 ft | 2 kts | 162° |
| 2026-05-03 21:36 | -31.32388 | -64.21009 | 1615 ft | 0 kts | 158° |
| 2026-05-03 21:37 | -31.32389 | -64.21009 | 1615 ft | 2 kts | 158° |
| 2026-05-03 21:37 | -31.32421 | -64.20987 | 1614 ft | 8 kts | 137° |
| 2026-05-03 21:37 | -31.32439 | -64.20921 | 1619 ft | 9 kts | 101° |
| 2026-05-03 21:38 | -31.32417 | -64.20853 | 1611 ft | 9 kts | 44° |
| 2026-05-03 21:38 | -31.32369 | -64.20806 | 1621 ft | 9 kts | 40° |
| 2026-05-03 21:38 | -31.32339 | -64.20772 | 1620 ft | 0 kts | 45° |
| 2026-05-03 21:39 | -31.32329 | -64.20760 | 1613 ft | 2 kts | 44° |
| 2026-05-03 21:39 | -31.32287 | -64.20714 | 1614 ft | 27 kts | 44° |
| 2026-05-03 21:39 | -31.31961 | -64.20349 | 1620 ft | 103 kts | 43° |
| 2026-05-03 21:39 | -31.31261 | -64.19587 | 1671 ft | 165 kts | 43° |
| 2026-05-03 21:40 | -31.30429 | -64.18644 | 2723 ft | 148 kts | 43° |
| 2026-05-03 21:40 | -31.29773 | -64.17903 | 3780 ft | 136 kts | 37° |
| 2026-05-03 21:40 | -31.29031 | -64.17061 | 3970 ft | 157 kts | 36° |
| 2026-05-03 21:40 | -31.28179 | -64.16154 | 4157 ft | 177 kts | 36° |
| 2026-05-03 21:41 | -31.27211 | -64.15134 | 4345 ft | 197 kts | 37° |
| 2026-05-03 21:41 | -31.26149 | -64.14027 | 4481 ft | 213 kts | 37° |
| 2026-05-03 21:41 | -31.25007 | -64.12835 | 4622 ft | 227 kts | 38° |
| 2026-05-03 21:41 | -31.24049 | -64.11288 | 4834 ft | 248 kts | 64° |
| 2026-05-03 21:42 | -31.23747 | -64.09224 | 4994 ft | 269 kts | 81° |
| 2026-05-03 21:42 | -31.23648 | -64.06984 | 4966 ft | 280 kts | 82° |
| 2026-05-03 21:42 | -31.23572 | -64.04690 | 5190 ft | 284 kts | 83° |
| 2026-05-03 21:42 | -31.23499 | -64.02378 | 5816 ft | 284 kts | 83° |
| 2026-05-03 21:43 | -31.23425 | -64.00072 | 6476 ft | 285 kts | 83° |
| 2026-05-03 21:43 | -31.23338 | -63.97737 | 7010 ft | 290 kts | 83° |
| 2026-05-03 21:43 | -31.23530 | -63.95372 | 7538 ft | 300 kts | 107° |
| 2026-05-03 21:43 | -31.24345 | -63.93145 | 8166 ft | 303 kts | 112° |
| 2026-05-03 21:44 | -31.25219 | -63.90870 | 8714 ft | 308 kts | 113° |
| 2026-05-03 21:44 | -31.26073 | -63.88579 | 9433 ft | 307 kts | 113° |
| 2026-05-03 21:44 | -31.26896 | -63.86257 | 9994 ft | 313 kts | 113° |
| 2026-05-03 21:44 | -31.27710 | -63.83875 | 10404 ft | 323 kts | 113° |
| 2026-05-03 21:45 | -31.28566 | -63.81357 | 10574 ft | 341 kts | 112° |
| 2026-05-03 21:45 | -31.29462 | -63.78712 | 10738 ft | 358 kts | 112° |
| 2026-05-03 21:45 | -31.30395 | -63.75957 | 11043 ft | 369 kts | 113° |
| 2026-05-03 21:45 | -31.31346 | -63.73137 | 11419 ft | 376 kts | 113° |
| 2026-05-03 21:46 | -31.32309 | -63.70266 | 11898 ft | 377 kts | 113° |
| 2026-05-03 21:46 | -31.33276 | -63.67369 | 11996 ft | 386 kts | 112° |
| 2026-05-03 21:46 | -31.34239 | -63.64476 | 12004 ft | 386 kts | 112° |
| 2026-05-03 21:46 | -31.35211 | -63.61550 | 12015 ft | 388 kts | 112° |
| 2026-05-03 21:47 | -31.36243 | -63.58620 | 12007 ft | 386 kts | 120° |
| 2026-05-03 21:47 | -31.37740 | -63.56026 | 12014 ft | 383 kts | 130° |
| 2026-05-03 21:47 | -31.39403 | -63.53637 | 12008 ft | 382 kts | 132° |
| 2026-05-03 21:47 | -31.41113 | -63.51261 | 12009 ft | 381 kts | 132° |
| 2026-05-03 21:48 | -31.42844 | -63.48879 | 12153 ft | 388 kts | 132° |
| 2026-05-03 21:48 | -31.44597 | -63.46472 | 12887 ft | 384 kts | 132° |
| 2026-05-03 21:48 | -31.46350 | -63.44107 | 13490 ft | 385 kts | 137° |
| 2026-05-03 21:48 | -31.48499 | -63.42271 | 13920 ft | 385 kts | 157° |
| 2026-05-03 21:49 | -31.51053 | -63.41399 | 14375 ft | 382 kts | 177° |
| 2026-05-03 21:49 | -31.53687 | -63.41484 | 14890 ft | 379 kts | 189° |
| 2026-05-03 21:49 | -31.56296 | -63.41901 | 14983 ft | 376 kts | 192° |
| 2026-05-03 21:49 | -31.58849 | -63.42378 | 15009 ft | 377 kts | 192° |
| 2026-05-03 21:50 | -31.61466 | -63.42887 | 15016 ft | 380 kts | 192° |
| 2026-05-03 21:50 | -31.64071 | -63.43401 | 15004 ft | 379 kts | 192° |
| 2026-05-03 21:50 | -31.66677 | -63.43919 | 15015 ft | 381 kts | 192° |
| 2026-05-03 21:50 | -31.69314 | -63.44429 | 15429 ft | 385 kts | 190° |
| 2026-05-03 21:51 | -31.72005 | -63.44481 | 16038 ft | 389 kts | 178° |
| 2026-05-03 21:51 | -31.74637 | -63.43888 | 16610 ft | 395 kts | 168° |
| 2026-05-03 21:51 | -31.77241 | -63.42730 | 17105 ft | 402 kts | 159° |
| 2026-05-03 21:51 | -31.79791 | -63.41308 | 17575 ft | 407 kts | 159° |
| 2026-05-03 21:52 | -31.82356 | -63.39877 | 18040 ft | 410 kts | 159° |
| 2026-05-03 21:52 | -31.84956 | -63.38457 | 18490 ft | 413 kts | 160° |
| 2026-05-03 21:52 | -31.87493 | -63.36811 | 18916 ft | 421 kts | 150° |
| 2026-05-03 21:52 | -31.89801 | -63.34648 | 19377 ft | 428 kts | 141° |
| 2026-05-03 21:53 | -31.91809 | -63.32023 | 19825 ft | 434 kts | 133° |
| 2026-05-03 21:53 | -31.93699 | -63.29226 | 20252 ft | 438 kts | 132° |
| 2026-05-03 21:53 | -31.95570 | -63.26380 | 20669 ft | 441 kts | 132° |
| 2026-05-03 21:53 | -31.97445 | -63.23515 | 21084 ft | 444 kts | 132° |
| 2026-05-03 21:54 | -31.99343 | -63.20631 | 21488 ft | 446 kts | 133° |
| 2026-05-03 21:54 | -32.01232 | -63.17780 | 21910 ft | 448 kts | 133° |
| 2026-05-03 21:54 | -32.03166 | -63.14879 | 22325 ft | 451 kts | 133° |
| 2026-05-03 21:54 | -32.05113 | -63.11967 | 22723 ft | 453 kts | 133° |
| 2026-05-03 21:55 | -32.07079 | -63.09033 | 23129 ft | 456 kts | 133° |
| 2026-05-03 21:55 | -32.09054 | -63.06088 | 23513 ft | 459 kts | 133° |
| 2026-05-03 21:55 | -32.11035 | -63.03130 | 23833 ft | 461 kts | 134° |
| 2026-05-03 21:55 | -32.13032 | -63.00147 | 24154 ft | 464 kts | 134° |
| 2026-05-03 21:56 | -32.15034 | -62.97152 | 24476 ft | 466 kts | 133° |
| 2026-05-03 21:56 | -32.17046 | -62.94140 | 24800 ft | 468 kts | 134° |
| 2026-05-03 21:56 | -32.19066 | -62.91114 | 25123 ft | 470 kts | 134° |
| 2026-05-03 21:56 | -32.21093 | -62.88073 | 25434 ft | 472 kts | 134° |
| 2026-05-03 21:57 | -32.23129 | -62.85017 | 25735 ft | 474 kts | 134° |
| 2026-05-03 21:57 | -32.25147 | -62.81986 | 26044 ft | 476 kts | 134° |
| 2026-05-03 21:57 | -32.27195 | -62.78907 | 26339 ft | 478 kts | 134° |
| 2026-05-03 21:57 | -32.29255 | -62.75808 | 26639 ft | 480 kts | 134° |
| 2026-05-03 21:58 | -32.31296 | -62.72728 | 27422 ft | 468 kts | 134° |
| 2026-05-03 21:58 | -32.33271 | -62.69738 | 28373 ft | 454 kts | 134° |
| 2026-05-03 21:58 | -32.35188 | -62.66833 | 29355 ft | 441 kts | 134° |
| 2026-05-03 21:58 | -32.37079 | -62.63976 | 29865 ft | 440 kts | 135° |
| 2026-05-03 21:59 | -32.38984 | -62.61110 | 30059 ft | 446 kts | 135° |
| 2026-05-03 21:59 | -32.40910 | -62.58211 | 30258 ft | 450 kts | 135° |
| 2026-05-03 21:59 | -32.42846 | -62.55292 | 30540 ft | 451 kts | 135° |
| 2026-05-03 21:59 | -32.44756 | -62.52402 | 30833 ft | 452 kts | 135° |
| 2026-05-03 22:00 | -32.46699 | -62.49458 | 31098 ft | 453 kts | 135° |
| 2026-05-03 22:00 | -32.48012 | -62.47468 | 31273 ft | 455 kts | 134° |
| 2026-05-03 22:00 | -32.50602 | -62.43537 | 31593 ft | 457 kts | 134° |
| 2026-05-03 22:00 | -32.52562 | -62.40559 | 31834 ft | 459 kts | 134° |
| 2026-05-03 22:01 | -32.54532 | -62.37564 | 32082 ft | 461 kts | 134° |
| 2026-05-03 22:01 | -32.56489 | -62.34587 | 32316 ft | 462 kts | 134° |
| 2026-05-03 22:01 | -32.58484 | -62.31548 | 32545 ft | 464 kts | 134° |
| 2026-05-03 22:01 | -32.60472 | -62.28519 | 32767 ft | 465 kts | 134° |
| 2026-05-03 22:02 | -32.62459 | -62.25487 | 33010 ft | 466 kts | 134° |
| 2026-05-03 22:02 | -32.64463 | -62.22429 | 32989 ft | 472 kts | 135° |
| 2026-05-03 22:02 | -32.68526 | -62.16224 | 33019 ft | 480 kts | 134° |
| 2026-05-03 22:03 | -32.72479 | -62.09747 | 33020 ft | 491 kts | 130° |
| 2026-05-03 22:03 | -32.76327 | -62.03038 | 32998 ft | 491 kts | 130° |
| 2026-05-03 22:04 | -32.79532 | -61.97455 | 33021 ft | 493 kts | 130° |
| 2026-05-03 22:04 | -32.83446 | -61.90711 | 33013 ft | 498 kts | 130° |
| 2026-05-03 22:05 | -32.87400 | -61.83922 | 33007 ft | 499 kts | 131° |
| 2026-05-03 22:05 | -32.91351 | -61.77127 | 33012 ft | 499 kts | 130° |
| 2026-05-03 22:06 | -32.95275 | -61.70362 | 33012 ft | 499 kts | 130° |
| 2026-05-03 22:06 | -32.99214 | -61.63558 | 33010 ft | 498 kts | 130° |
| 2026-05-03 22:07 | -33.03140 | -61.56763 | 33016 ft | 497 kts | 130° |
| 2026-05-03 22:07 | -33.07059 | -61.49971 | 33014 ft | 496 kts | 130° |
| 2026-05-03 22:08 | -33.10961 | -61.43193 | 33014 ft | 495 kts | 130° |
| 2026-05-03 22:08 | -33.14837 | -61.36450 | 33013 ft | 495 kts | 130° |
| 2026-05-03 22:09 | -33.18723 | -61.29676 | 33018 ft | 495 kts | 130° |
| 2026-05-03 22:10 | -33.24546 | -61.19503 | 33023 ft | 494 kts | 130° |
| 2026-05-03 22:10 | -33.28422 | -61.12716 | 33025 ft | 494 kts | 130° |
| 2026-05-03 22:11 | -33.32280 | -61.05894 | 33024 ft | 494 kts | 130° |
| 2026-05-03 22:11 | -33.36122 | -60.99063 | 33028 ft | 494 kts | 130° |
| 2026-05-03 22:12 | -33.39957 | -60.92245 | 33025 ft | 494 kts | 130° |
| 2026-05-03 22:12 | -33.43798 | -60.85406 | 33027 ft | 494 kts | 130° |
| 2026-05-03 22:13 | -33.47605 | -60.78613 | 33031 ft | 494 kts | 130° |
| 2026-05-03 22:13 | -33.51443 | -60.71750 | 33032 ft | 494 kts | 130° |
| 2026-05-03 22:14 | -33.55262 | -60.64908 | 33031 ft | 494 kts | 130° |
| 2026-05-03 22:14 | -33.59053 | -60.58102 | 33036 ft | 494 kts | 130° |
| 2026-05-03 22:15 | -33.62889 | -60.51204 | 33038 ft | 494 kts | 130° |
| 2026-05-03 22:15 | -33.66674 | -60.44385 | 33028 ft | 494 kts | 130° |
| 2026-05-03 22:16 | -33.70481 | -60.37514 | 33036 ft | 494 kts | 130° |
| 2026-05-03 22:16 | -33.74287 | -60.30631 | 33046 ft | 493 kts | 130° |
| 2026-05-03 22:17 | -33.78079 | -60.23758 | 33042 ft | 493 kts | 130° |
| 2026-05-03 22:17 | -33.81868 | -60.16879 | 33045 ft | 493 kts | 130° |
| 2026-05-03 22:18 | -33.86276 | -60.10775 | 33052 ft | 475 kts | 148° |
| 2026-05-03 22:18 | -33.91754 | -60.06620 | 33062 ft | 461 kts | 160° |
| 2026-05-03 22:19 | -33.97490 | -60.03144 | 33047 ft | 461 kts | 161° |
| 2026-05-03 22:19 | -34.03236 | -59.99616 | 33043 ft | 462 kts | 160° |
| 2026-05-03 22:20 | -34.08934 | -59.96060 | 33044 ft | 462 kts | 160° |
| 2026-05-03 22:20 | -34.14616 | -59.92507 | 33044 ft | 462 kts | 160° |
| 2026-05-03 22:21 | -34.20322 | -59.88941 | 33047 ft | 462 kts | 160° |
| 2026-05-03 22:21 | -34.26035 | -59.85369 | 33045 ft | 462 kts | 160° |
| 2026-05-03 22:22 | -34.31752 | -59.81790 | 33043 ft | 462 kts | 160° |
| 2026-05-03 22:22 | -34.37468 | -59.78207 | 33053 ft | 462 kts | 160° |
| 2026-05-03 22:23 | -34.43185 | -59.74616 | 33047 ft | 462 kts | 160° |
| 2026-05-03 22:23 | -34.48859 | -59.71047 | 33048 ft | 462 kts | 160° |
| 2026-05-03 22:24 | -34.54582 | -59.67442 | 33045 ft | 463 kts | 160° |
| 2026-05-03 22:24 | -34.60306 | -59.63831 | 33045 ft | 463 kts | 160° |
| 2026-05-03 22:25 | -34.66022 | -59.60219 | 33046 ft | 463 kts | 161° |
| 2026-05-03 22:25 | -34.71713 | -59.56617 | 33048 ft | 463 kts | 161° |
| 2026-05-03 22:26 | -34.77421 | -59.52999 | 33048 ft | 463 kts | 161° |
| 2026-05-03 22:26 | -34.83141 | -59.49367 | 33052 ft | 463 kts | 161° |
| 2026-05-03 22:27 | -34.88862 | -59.45729 | 33047 ft | 463 kts | 161° |
| 2026-05-03 22:27 | -34.94572 | -59.42092 | 33047 ft | 463 kts | 161° |
| 2026-05-03 22:28 | -35.00251 | -59.38469 | 33050 ft | 463 kts | 161° |
| 2026-05-03 22:28 | -35.05963 | -59.34820 | 33049 ft | 463 kts | 161° |
| 2026-05-03 22:29 | -35.11680 | -59.31162 | 33050 ft | 463 kts | 161° |
| 2026-05-03 22:29 | -35.17392 | -59.27500 | 33047 ft | 463 kts | 161° |
| 2026-05-03 22:30 | -35.23061 | -59.23861 | 33045 ft | 463 kts | 161° |
| 2026-05-03 22:30 | -35.28769 | -59.20190 | 33045 ft | 462 kts | 161° |
| 2026-05-03 22:31 | -35.34450 | -59.16531 | 33040 ft | 462 kts | 161° |
| 2026-05-03 22:31 | -35.40146 | -59.12857 | 33039 ft | 462 kts | 161° |
| 2026-05-03 22:32 | -35.45826 | -59.09187 | 33039 ft | 461 kts | 161° |
| 2026-05-03 22:32 | -35.51512 | -59.05507 | 33043 ft | 461 kts | 161° |
| 2026-05-03 22:33 | -35.57149 | -59.01853 | 33045 ft | 460 kts | 161° |
| 2026-05-03 22:33 | -35.62814 | -58.98175 | 33040 ft | 460 kts | 161° |
| 2026-05-03 22:34 | -35.68472 | -58.94496 | 33043 ft | 459 kts | 161° |
| 2026-05-03 22:34 | -35.74116 | -58.90820 | 33036 ft | 459 kts | 161° |
| 2026-05-03 22:35 | -35.79767 | -58.87133 | 33034 ft | 458 kts | 161° |
| 2026-05-03 22:35 | -35.85395 | -58.83455 | 33038 ft | 458 kts | 161° |
| 2026-05-03 22:36 | -35.91034 | -58.79765 | 33031 ft | 458 kts | 161° |
| 2026-05-03 22:36 | -35.96665 | -58.76073 | 33034 ft | 457 kts | 161° |
| 2026-05-03 22:37 | -36.02226 | -58.72422 | 33026 ft | 457 kts | 161° |
| 2026-05-03 22:37 | -36.07871 | -58.68709 | 33032 ft | 457 kts | 161° |
| 2026-05-03 22:38 | -36.13432 | -58.64839 | 33025 ft | 459 kts | 160° |
| 2026-05-03 22:38 | -36.18959 | -58.60844 | 33029 ft | 460 kts | 159° |
| 2026-05-03 22:39 | -36.24463 | -58.56873 | 33027 ft | 459 kts | 160° |
| 2026-05-03 22:39 | -36.30013 | -58.52891 | 33024 ft | 459 kts | 160° |
| 2026-05-03 22:40 | -36.35541 | -58.48931 | 33018 ft | 459 kts | 160° |
| 2026-05-03 22:40 | -36.41060 | -58.44970 | 33009 ft | 450 kts | 160° |
| 2026-05-03 22:40 | -36.43711 | -58.43048 | 33003 ft | 434 kts | 161° |
| 2026-05-03 22:41 | -36.46276 | -58.41187 | 32998 ft | 419 kts | 161° |
| 2026-05-03 22:41 | -36.48733 | -58.39406 | 32824 ft | 409 kts | 161° |
| 2026-05-03 22:41 | -36.51225 | -58.37622 | 31825 ft | 419 kts | 161° |
| 2026-05-03 22:41 | -36.53818 | -58.35788 | 30459 ft | 440 kts | 161° |
| 2026-05-03 22:42 | -36.56516 | -58.33874 | 29489 ft | 448 kts | 160° |
| 2026-05-03 22:42 | -36.59208 | -58.31936 | 28936 ft | 444 kts | 160° |
| 2026-05-03 22:42 | -36.61855 | -58.30011 | 28513 ft | 436 kts | 160° |
| 2026-05-03 22:42 | -36.64460 | -58.28112 | 28024 ft | 431 kts | 160° |
| 2026-05-03 22:43 | -36.67008 | -58.26259 | 27464 ft | 428 kts | 160° |
| 2026-05-03 22:43 | -36.69572 | -58.24399 | 26896 ft | 425 kts | 160° |
| 2026-05-03 22:43 | -36.72121 | -58.22551 | 26379 ft | 422 kts | 160° |
| 2026-05-03 22:43 | -36.74649 | -58.20717 | 25878 ft | 418 kts | 160° |
| 2026-05-03 22:44 | -36.77155 | -58.18900 | 25376 ft | 416 kts | 160° |
| 2026-05-03 22:44 | -36.79649 | -58.17089 | 24876 ft | 413 kts | 160° |
| 2026-05-03 22:44 | -36.82123 | -58.15291 | 24406 ft | 410 kts | 160° |
| 2026-05-03 22:44 | -36.84576 | -58.13508 | 23929 ft | 407 kts | 160° |
| 2026-05-03 22:45 | -36.87017 | -58.11732 | 23436 ft | 404 kts | 160° |
| 2026-05-03 22:45 | -36.88626 | -58.10561 | 23078 ft | 402 kts | 160° |
| 2026-05-03 22:45 | -36.91032 | -58.08807 | 22489 ft | 401 kts | 160° |
| 2026-05-03 22:45 | -36.93439 | -58.07053 | 21973 ft | 397 kts | 160° |
| 2026-05-03 22:46 | -36.95812 | -58.05319 | 21491 ft | 393 kts | 160° |
| 2026-05-03 22:46 | -36.98163 | -58.03600 | 21025 ft | 389 kts | 160° |
| 2026-05-03 22:46 | -37.00492 | -58.01897 | 20569 ft | 385 kts | 160° |
| 2026-05-03 22:46 | -37.02798 | -58.00209 | 20121 ft | 381 kts | 160° |
| 2026-05-03 22:47 | -37.05077 | -57.98540 | 19680 ft | 377 kts | 160° |
| 2026-05-03 22:47 | -37.07333 | -57.96888 | 19245 ft | 374 kts | 160° |
| 2026-05-03 22:47 | -37.09576 | -57.95245 | 18807 ft | 371 kts | 160° |
| 2026-05-03 22:47 | -37.11791 | -57.93621 | 18378 ft | 367 kts | 160° |
| 2026-05-03 22:48 | -37.13963 | -57.92028 | 17901 ft | 365 kts | 160° |
| 2026-05-03 22:48 | -37.16142 | -57.90428 | 17446 ft | 361 kts | 160° |
| 2026-05-03 22:48 | -37.18297 | -57.88844 | 17005 ft | 357 kts | 159° |
| 2026-05-03 22:48 | -37.20428 | -57.87277 | 16572 ft | 353 kts | 159° |
| 2026-05-03 22:49 | -37.22543 | -57.85720 | 16159 ft | 349 kts | 159° |
| 2026-05-03 22:49 | -37.24632 | -57.84182 | 15739 ft | 346 kts | 159° |
| 2026-05-03 22:49 | -37.26700 | -57.82659 | 15339 ft | 343 kts | 158° |
| 2026-05-03 22:49 | -37.28725 | -57.81166 | 14936 ft | 339 kts | 158° |
| 2026-05-03 22:50 | -37.30753 | -57.79671 | 14536 ft | 337 kts | 158° |
| 2026-05-03 22:50 | -37.32767 | -57.78185 | 14137 ft | 334 kts | 157° |
| 2026-05-03 22:50 | -37.34765 | -57.76711 | 13739 ft | 332 kts | 157° |
| 2026-05-03 22:50 | -37.36756 | -57.75240 | 13300 ft | 329 kts | 156° |
| 2026-05-03 22:51 | -37.38722 | -57.73785 | 12894 ft | 326 kts | 156° |
| 2026-05-03 22:51 | -37.40668 | -57.72345 | 12502 ft | 323 kts | 156° |
| 2026-05-03 22:51 | -37.42578 | -57.70930 | 12134 ft | 319 kts | 156° |
| 2026-05-03 22:51 | -37.44461 | -57.69534 | 11737 ft | 317 kts | 156° |
| 2026-05-03 22:52 | -37.46351 | -57.68133 | 11344 ft | 314 kts | 156° |
| 2026-05-03 22:52 | -37.48235 | -57.66736 | 10965 ft | 312 kts | 156° |
| 2026-05-03 22:52 | -37.50093 | -57.65356 | 10723 ft | 305 kts | 156° |
| 2026-05-03 22:52 | -37.51892 | -57.64016 | 10598 ft | 294 kts | 156° |
| 2026-05-03 22:53 | -37.53615 | -57.62732 | 10474 ft | 284 kts | 156° |
| 2026-05-03 22:53 | -37.55301 | -57.61476 | 10353 ft | 275 kts | 156° |
| 2026-05-03 22:53 | -37.56924 | -57.60267 | 10245 ft | 266 kts | 156° |
| 2026-05-03 22:53 | -37.58490 | -57.59100 | 10138 ft | 257 kts | 156° |
| 2026-05-03 22:54 | -37.60008 | -57.57969 | 10038 ft | 249 kts | 156° |
| 2026-05-03 22:54 | -37.61477 | -57.56875 | 9875 ft | 242 kts | 157° |
| 2026-05-03 22:54 | -37.62897 | -57.55817 | 9631 ft | 235 kts | 157° |
| 2026-05-03 22:54 | -37.64264 | -57.54798 | 9390 ft | 227 kts | 157° |
| 2026-05-03 22:55 | -37.65600 | -57.53801 | 9151 ft | 219 kts | 157° |
| 2026-05-03 22:55 | -37.66897 | -57.52834 | 8911 ft | 217 kts | 157° |
| 2026-05-03 22:55 | -37.68259 | -57.51826 | 8748 ft | 233 kts | 157° |
| 2026-05-03 22:55 | -37.69735 | -57.50741 | 8494 ft | 254 kts | 156° |
| 2026-05-03 22:56 | -37.71266 | -57.49600 | 8207 ft | 255 kts | 156° |
| 2026-05-03 22:56 | -37.72786 | -57.48460 | 7927 ft | 253 kts | 155° |
| 2026-05-03 22:56 | -37.74280 | -57.47339 | 7667 ft | 251 kts | 155° |
| 2026-05-03 22:56 | -37.75775 | -57.46216 | 7410 ft | 249 kts | 155° |
| 2026-05-03 22:57 | -37.77260 | -57.45102 | 7158 ft | 247 kts | 155° |
| 2026-05-03 22:57 | -37.78738 | -57.43994 | 6901 ft | 246 kts | 155° |
| 2026-05-03 22:57 | -37.80208 | -57.42891 | 6651 ft | 244 kts | 155° |
| 2026-05-03 22:57 | -37.81627 | -57.41823 | 6591 ft | 229 kts | 155° |
| 2026-05-03 22:58 | -37.82953 | -57.40822 | 6499 ft | 214 kts | 156° |
| 2026-05-03 22:58 | -37.84192 | -57.39890 | 6379 ft | 201 kts | 156° |
| 2026-05-03 22:58 | -37.85358 | -57.39014 | 6122 ft | 194 kts | 157° |
| 2026-05-03 22:58 | -37.86525 | -57.38142 | 5818 ft | 192 kts | 157° |
| 2026-05-03 22:59 | -37.87652 | -57.37298 | 5471 ft | 191 kts | 156° |
| 2026-05-03 22:59 | -37.88798 | -57.36440 | 5075 ft | 193 kts | 156° |
| 2026-05-03 22:59 | -37.89921 | -57.35594 | 4940 ft | 184 kts | 156° |
| 2026-05-03 22:59 | -37.90991 | -57.34787 | 4831 ft | 176 kts | 157° |
| 2026-05-03 23:00 | -37.92037 | -57.34000 | 4762 ft | 173 kts | 157° |
| 2026-05-03 23:00 | -37.93085 | -57.33214 | 4685 ft | 175 kts | 158° |
| 2026-05-03 23:00 | -37.94211 | -57.32853 | 4508 ft | 166 kts | 193° |
| 2026-05-03 23:00 | -37.95236 | -57.33385 | 4373 ft | 162 kts | 215° |
| 2026-05-03 23:01 | -37.96200 | -57.34219 | 3786 ft | 176 kts | 214° |
| 2026-05-03 23:01 | -37.97224 | -57.35095 | 3331 ft | 170 kts | 214° |
| 2026-05-03 23:01 | -37.98127 | -57.35871 | 3218 ft | 146 kts | 214° |
| 2026-05-03 23:01 | -37.98964 | -57.36595 | 3195 ft | 148 kts | 214° |
| 2026-05-03 23:02 | -37.99779 | -57.37300 | 3098 ft | 133 kts | 214° |
| 2026-05-03 23:02 | -38.00495 | -57.37921 | 3084 ft | 123 kts | 214° |
| 2026-05-03 23:02 | -38.01190 | -57.38534 | 3053 ft | 120 kts | 218° |
| 2026-05-03 23:02 | -38.01506 | -57.39500 | 3016 ft | 135 kts | 271° |
| 2026-05-03 23:03 | -38.01220 | -57.40691 | 2845 ft | 140 kts | 271° |
| 2026-05-03 23:03 | -38.00985 | -57.41879 | 2679 ft | 143 kts | 283° |
| 2026-05-03 23:03 | -38.00550 | -57.43028 | 2499 ft | 146 kts | 287° |
| 2026-05-03 23:03 | -38.00064 | -57.44147 | 2302 ft | 147 kts | 291° |
| 2026-05-03 23:04 | -37.99532 | -57.45257 | 2109 ft | 147 kts | 292° |
| 2026-05-03 23:04 | -37.98989 | -57.46352 | 1917 ft | 146 kts | 292° |
| 2026-05-03 23:04 | -37.98442 | -57.47437 | 1719 ft | 145 kts | 293° |
| 2026-05-03 23:04 | -37.97894 | -57.48517 | 1524 ft | 145 kts | 294° |
| 2026-05-03 23:05 | -37.97353 | -57.49583 | 1337 ft | 146 kts | 294° |
| 2026-05-03 23:05 | -37.96801 | -57.50668 | 1152 ft | 147 kts | 295° |
| 2026-05-03 23:05 | -37.96248 | -57.51756 | 944 ft | 147 kts | 295° |
| 2026-05-03 23:05 | -37.95701 | -57.52829 | 790 ft | 143 kts | 296° |
| 2026-05-03 23:06 | -37.95180 | -57.53875 | 647 ft | 139 kts | 298° |
| 2026-05-03 23:06 | -37.94689 | -57.54947 | 422 ft | 140 kts | 306° |
| 2026-05-03 23:06 | -37.94142 | -57.55951 | 200 ft | 136 kts | 307° |
| 2026-05-03 23:06 | -37.93646 | -57.56884 | 50 ft | 118 kts | 304° |
| 2026-05-03 23:07 | -37.93335 | -57.57496 | 48 ft | 72 kts | 303° |
| 2026-05-03 23:07 | -37.93171 | -57.57819 | 52 ft | 12 kts | 303° |
| 2026-05-03 23:07 | -37.93152 | -57.57857 | 51 ft | 8 kts | 302° |
| 2026-05-03 23:07 | -37.93137 | -57.57949 | 53 ft | 13 kts | 243° |
| 2026-05-03 23:08 | -37.93217 | -57.58028 | 53 ft | 11 kts | 210° |
| 2026-05-03 23:08 | -37.93291 | -57.58031 | 53 ft | 11 kts | 191° |
| 2026-05-03 23:08 | -37.93313 | -57.58058 | 49 ft | 4 kts | 220° |
| 2026-05-03 23:08 | -37.93343 | -57.58052 | 53 ft | 7 kts | 141° |
| 2026-05-03 23:09 | -37.93386 | -57.57984 | 53 ft | 8 kts | 171° |
| 2026-05-03 23:09 | -37.93391 | -57.58037 | 51 ft | 3 kts | 320° |
| 2026-05-03 23:09 | -37.93355 | -57.58057 | 53 ft | 8 kts | 334° |
| 2026-05-03 23:09 | -37.93338 | -57.58068 | 53 ft | 1 kts | 333° |
| 2026-05-03 23:10 | -37.93334 | -57.58070 | 53 ft | 0 kts | 333° |